createdAt,value
2018-11-21T00:02:41.447Z,12.50
2018-11-21T00:05:27.930Z,12.50
2018-11-21T00:08:14.592Z,12.50
2018-11-21T00:11:01.064Z,12.50
2018-11-21T00:14:11.137Z,12.50
2018-11-21T00:16:57.617Z,12.50
2018-11-21T00:19:44.125Z,12.50
2018-11-21T00:22:30.602Z,12.50
2018-11-21T00:25:39.623Z,12.50
2018-11-21T00:28:26.102Z,12.50
2018-11-21T00:31:12.615Z,12.50
2018-11-21T00:33:59.084Z,12.50
2018-11-21T00:36:45.585Z,12.50
2018-11-21T00:39:32.052Z,12.50
2018-11-21T00:42:18.543Z,12.60
2018-11-21T00:45:30.117Z,12.50
2018-11-21T00:48:16.120Z,12.50
2018-11-21T00:51:02.640Z,12.50
2018-11-21T00:53:49.132Z,12.50
2018-11-21T00:56:36.160Z,12.60
2018-11-21T00:59:22.686Z,12.60
2018-11-21T01:02:09.344Z,12.60
2018-11-21T01:04:55.871Z,12.60
2018-11-21T01:07:42.359Z,12.60
2018-11-21T01:10:28.864Z,12.60
2018-11-21T01:13:15.327Z,12.60
2018-11-21T01:16:01.845Z,12.60
2018-11-21T01:18:48.329Z,12.50
2018-11-21T01:21:34.979Z,12.50
2018-11-21T01:24:21.537Z,12.50
2018-11-21T01:27:08.194Z,12.60
2018-11-21T01:29:55.117Z,12.60
2018-11-21T01:33:09.563Z,12.60
2018-11-21T01:36:14.310Z,12.60
2018-11-21T01:39:00.789Z,12.50
2018-11-21T01:42:09.981Z,12.50
2018-11-21T01:44:56.459Z,12.50
2018-11-21T01:48:06.401Z,12.40
2018-11-21T01:50:52.877Z,12.40
2018-11-21T01:53:39.387Z,12.40
2018-11-21T01:56:25.854Z,12.40
2018-11-21T01:59:12.369Z,12.40
2018-11-21T02:02:19.840Z,12.40
2018-11-21T02:05:06.324Z,12.40
2018-11-21T02:07:52.797Z,12.40
2018-11-21T02:10:39.400Z,12.40
2018-11-21T02:13:25.877Z,12.40
2018-11-21T02:16:35.628Z,12.30
2018-11-21T02:19:22.110Z,12.40
2018-11-21T02:22:08.618Z,12.40
2018-11-21T02:24:55.092Z,12.40
2018-11-21T02:28:04.720Z,12.40
2018-11-21T02:30:51.213Z,12.40
2018-11-21T02:33:37.710Z,12.40
2018-11-21T02:36:24.234Z,12.40
2018-11-21T02:42:16.198Z,12.40
2018-11-21T02:45:25.538Z,12.40
2018-11-21T02:48:12.032Z,12.40
2018-11-21T02:50:58.507Z,12.40
2018-11-21T02:53:45.089Z,12.40
2018-11-21T02:56:55.042Z,12.50
2018-11-21T02:59:41.571Z,12.50
2018-11-21T03:02:51.221Z,12.40
2018-11-21T03:05:37.713Z,12.40
2018-11-21T03:08:25.070Z,12.40
2018-11-21T03:11:11.582Z,12.40
2018-11-21T03:13:58.054Z,12.50
2018-11-21T03:16:45.571Z,12.50
2018-11-21T03:19:32.057Z,12.50
2018-11-21T03:22:18.564Z,12.50
2018-11-21T03:25:05.044Z,12.50
2018-11-21T03:31:00.303Z,12.50
2018-11-21T03:34:07.835Z,12.50
2018-11-21T03:37:17.549Z,12.50
2018-11-21T03:40:26.628Z,12.50
2018-11-21T03:43:36.154Z,12.50
2018-11-21T03:46:22.750Z,12.50
2018-11-21T03:49:31.850Z,12.50
2018-11-21T03:52:40.949Z,12.50
2018-11-21T03:55:27.438Z,12.50
2018-11-21T03:58:13.991Z,12.50
2018-11-21T04:01:00.457Z,12.60
2018-11-21T04:03:46.960Z,12.60
2018-11-21T04:06:33.432Z,12.50
2018-11-21T04:09:43.484Z,12.50
2018-11-21T04:12:29.976Z,12.50
2018-11-21T04:15:16.491Z,12.60
2018-11-21T04:18:02.974Z,12.60
2018-11-21T04:20:49.556Z,12.50
2018-11-21T04:23:58.351Z,12.50
2018-11-21T04:26:44.861Z,12.50
2018-11-21T04:29:31.431Z,12.50
2018-11-21T04:32:41.697Z,12.50
2018-11-21T04:35:28.165Z,12.50
2018-11-21T04:38:14.668Z,12.40
2018-11-21T04:41:24.813Z,12.40
2018-11-21T04:44:11.406Z,12.40
2018-11-21T04:46:57.880Z,12.40
2018-11-21T04:49:44.397Z,12.30
2018-11-21T04:52:54.477Z,12.30
2018-11-21T04:55:40.995Z,12.20
2018-11-21T04:58:50.753Z,12.20
2018-11-21T05:01:37.270Z,12.20
2018-11-21T05:04:23.739Z,12.20
2018-11-21T05:07:34.056Z,12.10
2018-11-21T05:10:20.527Z,12.10
2018-11-21T05:13:07.026Z,12.10
2018-11-21T05:16:17.130Z,12.10
2018-11-21T05:19:03.707Z,12.10
2018-11-21T05:22:12.360Z,12.10
2018-11-21T05:25:21.791Z,12.10
2018-11-21T05:28:08.264Z,12.20
2018-11-21T05:30:54.765Z,12.20
2018-11-21T05:33:41.243Z,12.20
2018-11-21T05:36:27.830Z,12.10
2018-11-21T05:39:14.244Z,12.10
2018-11-21T05:42:00.911Z,12.10
2018-11-21T05:44:47.392Z,12.10
2018-11-21T05:47:33.898Z,12.10
2018-11-21T05:50:43.381Z,12.10
2018-11-21T05:53:29.908Z,12.10
2018-11-21T05:56:16.406Z,12.10
2018-11-21T05:59:04.199Z,12.10
2018-11-21T06:01:50.580Z,12.10
2018-11-21T06:04:59.872Z,12.10
2018-11-21T06:07:46.343Z,12.10
2018-11-21T06:10:55.903Z,12.20
2018-11-21T06:13:42.378Z,12.20
2018-11-21T06:16:28.902Z,12.20
2018-11-21T12:12:57.961Z,20.40
2018-11-21T12:15:44.442Z,20.30
2018-11-21T12:18:30.962Z,20.20
2018-11-21T12:21:17.431Z,20.10
2018-11-21T12:24:04.113Z,20.20
2018-11-21T12:27:13.767Z,20.00
2018-11-21T12:30:00.358Z,20.30
2018-11-21T12:32:46.832Z,20.80
2018-11-21T12:35:58.161Z,21.00
2018-11-21T12:39:07.541Z,21.20
2018-11-21T12:41:54.050Z,21.20
2018-11-21T12:44:57.804Z,21.30
2018-11-21T12:48:07.512Z,21.40
2018-11-21T12:50:53.986Z,21.60
2018-11-21T12:53:40.506Z,21.80
2018-11-21T12:56:26.977Z,22.10
2018-11-21T12:59:36.468Z,22.50
2018-11-21T13:02:22.952Z,22.60
2018-11-21T13:05:09.467Z,22.20
2018-11-21T13:07:55.947Z,21.90
2018-11-21T13:10:42.481Z,21.50
2018-11-21T13:13:28.965Z,21.70
2018-11-21T13:16:15.506Z,21.90
2018-11-21T13:19:01.993Z,21.60
2018-11-21T13:21:48.498Z,21.20
2018-11-21T13:24:57.685Z,20.60
2018-11-21T13:28:06.896Z,19.80
2018-11-21T13:30:53.384Z,19.20
2018-11-21T13:33:39.900Z,19.00
2018-11-21T13:36:26.454Z,18.80
2018-11-21T13:39:12.975Z,18.60
2018-11-21T13:41:59.463Z,18.50
2018-11-21T13:44:45.976Z,18.40
2018-11-21T13:47:55.263Z,18.40
2018-11-21T13:53:28.289Z,18.30
2018-11-21T13:56:14.825Z,18.20
2018-11-21T13:59:01.297Z,18.10
2018-11-21T14:02:10.888Z,18.10
2018-11-21T14:05:20.857Z,18.10
2018-11-21T14:08:07.371Z,18.10
2018-11-21T14:10:53.849Z,18.30
2018-11-21T14:13:40.348Z,18.30
2018-11-21T14:16:26.823Z,18.30
2018-11-21T14:19:13.417Z,18.30
2018-11-21T14:22:23.838Z,18.20
2018-11-21T14:25:10.436Z,18.20
2018-11-21T14:27:56.919Z,18.10
2018-11-21T14:30:43.519Z,18.10
2018-11-21T14:33:53.307Z,18.10
2018-11-21T14:36:40.093Z,18.00
2018-11-21T14:42:32.262Z,17.90
2018-11-21T14:45:18.687Z,17.90
2018-11-21T14:48:05.295Z,17.80
2018-11-21T14:50:51.777Z,17.70
2018-11-21T14:53:38.322Z,17.70
2018-11-21T14:56:38.318Z,17.60
2018-11-21T14:59:24.864Z,17.50
2018-11-21T15:02:11.349Z,17.50
2018-11-21T15:05:20.822Z,17.50
2018-11-21T15:08:07.311Z,17.50
2018-11-21T15:11:16.661Z,17.40
2018-11-21T15:14:26.701Z,17.30
2018-11-21T15:17:13.291Z,17.30
2018-11-21T15:20:24.057Z,17.20
2018-11-21T15:23:10.766Z,17.20
2018-11-21T15:25:57.247Z,17.10
2018-11-21T15:28:43.813Z,17.10
2018-11-21T15:31:30.283Z,17.00
2018-11-21T15:34:39.474Z,17.00
2018-11-21T15:37:26.087Z,16.90
2018-11-21T15:43:21.098Z,16.80
2018-11-21T15:46:07.723Z,16.80
2018-11-21T15:49:17.136Z,16.70
2018-11-21T15:52:03.663Z,16.60
2018-11-21T15:55:13.010Z,16.60
2018-11-21T15:57:59.523Z,16.60
2018-11-21T16:00:46.022Z,16.50
2018-11-21T16:03:32.610Z,16.40
2018-11-21T16:06:19.109Z,16.40
2018-11-21T16:09:28.222Z,16.20
2018-11-21T16:12:37.706Z,16.20
2018-11-21T16:18:32.565Z,16.10
2018-11-21T16:21:19.050Z,16.00
2018-11-21T16:24:05.590Z,16.00
2018-11-21T16:26:52.090Z,15.90
2018-11-21T16:29:38.637Z,15.90
2018-11-21T16:32:25.099Z,15.90
2018-11-21T16:35:11.602Z,15.80
2018-11-21T16:38:12.032Z,15.80
2018-11-21T16:44:08.005Z,15.60
2018-11-21T16:46:54.487Z,15.50
2018-11-21T16:50:03.991Z,15.50
2018-11-21T16:52:50.528Z,15.40
2018-11-21T16:55:37.078Z,15.40
2018-11-21T17:01:51.501Z,15.30
2018-11-21T17:05:00.786Z,15.30
2018-11-21T17:07:47.385Z,15.30
2018-11-21T17:10:33.868Z,15.30
2018-11-21T17:13:20.394Z,15.30
2018-11-21T17:16:06.878Z,15.30
2018-11-21T17:19:16.256Z,15.20
2018-11-21T17:22:02.741Z,15.20
2018-11-21T17:24:49.247Z,15.20
2018-11-21T17:27:35.746Z,15.10
2018-11-21T17:30:45.812Z,15.10
2018-11-21T17:33:32.295Z,15.10
2018-11-21T17:36:22.013Z,15.00
2018-11-21T17:39:08.589Z,15.00
2018-11-21T17:42:18.942Z,15.00
2018-11-21T17:45:05.420Z,14.90
2018-11-21T17:47:52.011Z,14.90
2018-11-21T17:53:44.005Z,14.80
2018-11-21T17:56:30.652Z,14.80
2018-11-21T17:59:39.657Z,14.70
2018-11-21T18:02:26.144Z,14.70
2018-11-21T18:05:35.919Z,14.60
2018-11-21T18:08:22.423Z,14.60
2018-11-21T18:14:18.015Z,14.60
2018-11-21T18:17:04.503Z,14.60
2018-11-21T18:19:51.110Z,14.60
2018-11-21T18:22:37.615Z,14.60
2018-11-21T18:25:24.155Z,14.60
2018-11-21T18:28:33.967Z,14.60
2018-11-21T18:31:43.794Z,14.60
2018-11-21T18:34:30.275Z,14.60
2018-11-21T18:37:16.786Z,14.60
2018-11-21T18:40:03.286Z,14.60
2018-11-21T18:42:49.806Z,14.60
2018-11-21T18:45:36.334Z,14.60
2018-11-21T18:48:22.823Z,14.60
2018-11-21T18:51:32.581Z,14.60
2018-11-21T18:54:19.077Z,14.60
2018-11-21T18:57:29.049Z,14.60
2018-11-21T19:00:15.608Z,14.60
2018-11-21T19:03:02.176Z,14.60
2018-11-21T19:05:48.678Z,14.50
2018-11-21T19:08:35.340Z,14.50
2018-11-21T19:11:21.832Z,14.50
2018-11-21T19:14:08.355Z,14.50
2018-11-21T19:16:54.833Z,14.50
2018-11-21T19:19:41.371Z,14.50
2018-11-21T19:22:27.852Z,14.50
2018-11-21T19:25:14.390Z,14.50
2018-11-21T19:28:00.907Z,14.50
2018-11-21T19:31:10.488Z,14.50
2018-11-21T19:33:56.985Z,14.50
2018-11-21T19:37:07.119Z,14.50
2018-11-21T19:40:17.045Z,14.50
2018-11-21T19:43:03.545Z,14.40
2018-11-21T19:45:50.141Z,14.40
2018-11-21T19:48:36.635Z,14.40
2018-11-21T19:51:46.538Z,14.40
2018-11-21T19:54:33.043Z,14.40
2018-11-21T19:57:19.553Z,14.50
2018-11-21T20:03:11.617Z,14.40
2018-11-21T20:05:58.106Z,14.50
2018-11-21T20:08:44.623Z,14.50
2018-11-21T20:11:54.605Z,14.50
2018-11-21T20:14:41.134Z,14.50
2018-11-21T20:17:51.005Z,14.40
2018-11-21T20:21:01.097Z,14.40
2018-11-21T20:24:10.458Z,14.40
2018-11-21T20:26:57.007Z,14.40
2018-11-21T20:29:46.620Z,14.40
2018-11-21T20:32:29.995Z,14.40
2018-11-21T20:35:16.483Z,14.30
2018-11-21T20:38:26.663Z,14.30
2018-11-21T20:41:13.148Z,14.40
2018-11-21T20:43:59.660Z,14.40
2018-11-21T20:46:46.153Z,14.40
2018-11-21T20:49:32.653Z,14.30
2018-11-21T20:52:19.131Z,14.30
2018-11-21T20:55:05.642Z,14.30
2018-11-21T20:57:52.118Z,14.30
2018-11-21T21:00:38.723Z,14.30
2018-11-21T21:03:47.888Z,14.30
2018-11-21T21:06:57.269Z,14.30
2018-11-21T21:09:43.742Z,14.20
2018-11-21T21:12:30.259Z,14.20
2018-11-21T21:15:39.764Z,14.20
2018-11-21T21:18:26.490Z,14.20
2018-11-21T21:21:36.107Z,14.20
2018-11-21T21:27:30.871Z,14.20
2018-11-21T21:30:40.604Z,14.20
2018-11-21T21:33:27.143Z,14.20
2018-11-21T21:36:13.650Z,14.20
2018-11-21T21:39:00.510Z,14.20
2018-11-21T21:41:47.003Z,14.10
2018-11-21T21:44:33.861Z,14.10
2018-11-21T21:47:20.705Z,14.00
2018-11-21T21:50:07.268Z,14.00
2018-11-21T21:53:16.663Z,14.00
2018-11-21T21:56:29.244Z,14.00
2018-11-21T21:59:38.255Z,13.90
2018-11-21T22:02:24.756Z,13.80
2018-11-21T22:05:12.160Z,13.80
2018-11-21T22:07:58.921Z,13.80
2018-11-21T22:10:45.396Z,13.80
2018-11-21T22:13:31.951Z,13.80
2018-11-21T22:16:18.539Z,13.80
2018-11-21T22:19:29.807Z,13.80
2018-11-21T22:22:16.288Z,13.80
2018-11-21T22:25:02.892Z,13.80
2018-11-21T22:27:49.448Z,13.80
2018-11-21T22:30:58.903Z,13.80
2018-11-21T22:33:45.433Z,13.70
2018-11-21T22:36:31.984Z,13.70
2018-11-21T22:39:18.666Z,13.70
2018-11-21T22:42:05.271Z,13.70
2018-11-21T22:44:51.804Z,13.70
2018-11-21T22:47:38.419Z,13.70
2018-11-21T22:50:24.942Z,13.80
2018-11-21T22:53:11.574Z,13.70
